This is the latest recevied weather packets stored in our database for station/object OH2HCY-3. If no packets are shown the sender has not sent any weather packets the latest 10 day(s).
| Time | Temp. | Humidity | Pressure | Rain* | Wind** | Luminosity | Snow |
|---|---|---|---|---|---|---|---|
| 1787733637 | 19.44° C | 52% | 1024.7 hPa | - | - | - | - |
| 1787732572 | 19.44° C | 50% | 1024.6 hPa | - | - | - | - |
| 1787731571 | 20° C | 51% | 1024.5 hPa | - | - | - | - |
| 1787730533 | 19.44° C | 53% | 1024.4 hPa | - | - | - | - |
| 1787729338 | 18.33° C | 61% | 1024.2 hPa | - | - | - | - |
| 1787728296 | 17.78° C | 66% | 1024.3 hPa | - | - | - | - |
| 1787727322 | 16.67° C | 71% | 1024.2 hPa | - | - | - | - |
| 1787726352 | 15.56° C | 75% | 1024.1 hPa | - | - | - | - |
| 1787725330 | 13.89° C | 80% | 1024.2 hPa | - | - | - | - |
| 1787724277 | 13.89° C | 80% | 1024.1 hPa | - | - | - | - |
| 1787723236 | 13.33° C | 81% | 1024 hPa | - | - | - | - |
| 1787722075 | 12.78° C | 85% | 1023.9 hPa | - | - | - | - |
| 1787720876 | 12.22° C | 91% | 1024 hPa | - | - | - | - |
| 1787719762 | 11.11° C | 91% | 1024 hPa | - | - | - | - |
| 1787718566 | 10.56° C | 91% | 1023.8 hPa | - | - | - | - |
| 1787717422 | 10.56° C | 91% | 1023.8 hPa | - | - | - | - |
| 1787716362 | 10.56° C | 91% | 1023.7 hPa | - | - | - | - |
| 1787715242 | 10.56° C | 91% | 1023.7 hPa | - | - | - | - |
| 1787714085 | 10° C | 91% | 1023.5 hPa | - | - | - | - |
| 1787713025 | 10° C | 91% | 1023.5 hPa | - | - | - | - |
| 1787711885 | 9.44° C | 91% | 1023.5 hPa | - | - | - | - |
| 1787710747 | 9.44° C | 91% | 1023.4 hPa | - | - | - | - |
| 1787709698 | 9.44° C | 91% | 1023.3 hPa | - | - | - | - |
| 1787708737 | 9.44° C | 90% | 1023.2 hPa | - | - | - | - |
| 1787707742 | 10° C | 90% | 1023 hPa | - | - | - | - |
* Rain since midnight (hover to see other rain measurements)
** Current wind speed in m/s (hover to see current wind gust speed)